createdAt,value
2022-08-18T00:00:40.593Z,94520.56
2022-08-18T00:01:48.640Z,94557.44
2022-08-18T00:02:46.573Z,94579.63
2022-08-18T00:04:03.389Z,94558.19
2022-08-18T00:05:00.631Z,94583.03
2022-08-18T00:05:58.942Z,94444.38
2022-08-18T00:06:55.786Z,94565.63
2022-08-18T00:07:52.536Z,94564.63
2022-08-18T00:08:49.250Z,94578.13
2022-08-18T00:09:51.115Z,94557.88
2022-08-18T00:10:47.926Z,94571.22
2022-08-18T00:11:45.357Z,94573.22
2022-08-18T00:12:45.666Z,94566.78
2022-08-18T00:13:42.365Z,94569.19
2022-08-18T00:14:39.460Z,94576.13
2022-08-18T00:15:41.708Z,94568.16
2022-08-18T00:16:45.832Z,94568.38
2022-08-18T00:17:43.493Z,94564.41
2022-08-18T00:18:40.214Z,94573.16
2022-08-18T00:19:46.472Z,94539.06
2022-08-18T00:20:45.521Z,94572.78
2022-08-18T00:21:42.262Z,94564.19
2022-08-18T00:22:42.334Z,94566.44
2022-08-18T00:23:39.242Z,94566.06
2022-08-18T00:24:36.053Z,94495.59
2022-08-18T00:25:45.574Z,94470.66
2022-08-18T00:26:42.285Z,94571.34
2022-08-18T00:27:43.790Z,94551.50
2022-08-18T00:28:40.507Z,94569.19
2022-08-18T00:29:37.281Z,94560.22
2022-08-18T00:30:34.427Z,94575.13
2022-08-18T00:31:31.649Z,94585.03
2022-08-18T00:32:33.649Z,94520.53
2022-08-18T00:33:30.540Z,94535.28
2022-08-18T00:34:27.420Z,94577.16
2022-08-18T00:35:38.314Z,94530.38
2022-08-18T00:36:35.450Z,94571.34
2022-08-18T00:37:32.802Z,94561.91
2022-08-18T00:38:29.578Z,94573.94
2022-08-18T00:39:26.387Z,94571.66
2022-08-18T00:40:32.326Z,94572.75
2022-08-18T00:41:31.347Z,94542.84
2022-08-18T00:42:30.563Z,94560.38
2022-08-18T00:43:45.092Z,94489.59
2022-08-18T00:44:41.922Z,94544.19
2022-08-18T00:45:42.681Z,94546.44
2022-08-18T00:46:39.562Z,94571.53
2022-08-18T00:47:42.979Z,94560.66
2022-08-18T00:48:39.983Z,94565.97
2022-08-18T00:49:52.625Z,94582.69
2022-08-18T00:50:57.805Z,94580.59
2022-08-18T00:51:56.713Z,94441.78
2022-08-18T00:53:05.100Z,94577.97
2022-08-18T00:54:17.500Z,94595.16
2022-08-18T00:55:15.396Z,94557.63
2022-08-18T00:56:22.352Z,94582.56
2022-08-18T00:57:22.396Z,94540.41
2022-08-18T00:58:27.599Z,94599.69
2022-08-18T00:59:27.643Z,94581.91
2022-08-18T01:00:24.698Z,94583.75
2022-08-18T01:01:26.650Z,94574.47
2022-08-18T01:02:30.165Z,94574.34
2022-08-18T01:03:29.040Z,94589.25
2022-08-18T01:04:37.092Z,94585.50
2022-08-18T01:05:53.254Z,94598.25
2022-08-18T01:07:01.987Z,94584.13
2022-08-18T01:07:59.658Z,94583.00
2022-08-18T01:08:56.483Z,94573.94
2022-08-18T01:09:53.249Z,94594.63
2022-08-18T01:10:50.862Z,94593.22
2022-08-18T01:11:47.616Z,94569.84
2022-08-18T01:12:47.091Z,94586.91
2022-08-18T01:13:44.066Z,94579.47
2022-08-18T01:14:41.447Z,94587.91
2022-08-18T01:15:39.360Z,94585.19
2022-08-18T01:16:56.918Z,94580.28
2022-08-18T01:18:14.133Z,94576.72
2022-08-18T01:19:29.606Z,94580.53
2022-08-18T01:20:57.535Z,94588.19
2022-08-18T01:22:11.977Z,94563.44
2022-08-18T01:23:17.206Z,94579.91
2022-08-18T01:24:18.528Z,94578.25
2022-08-18T01:25:40.051Z,94550.44
2022-08-18T01:26:50.087Z,94582.09
2022-08-18T01:27:47.163Z,94585.09
2022-08-18T01:28:46.463Z,94578.59
2022-08-18T01:29:44.054Z,94591.75
2022-08-18T01:30:53.235Z,94574.50
2022-08-18T01:31:56.751Z,94593.22
2022-08-18T01:32:54.263Z,94582.06
2022-08-18T01:33:51.003Z,94576.75
2022-08-18T01:34:49.873Z,94579.94
2022-08-18T01:35:49.424Z,94584.78
2022-08-18T01:36:46.370Z,94596.50
2022-08-18T01:37:43.426Z,94543.94
2022-08-18T01:38:40.599Z,94511.03
2022-08-18T01:41:22.761Z,94589.19
2022-08-18T01:41:23.807Z,94589.41
2022-08-18T01:42:17.378Z,94590.75
2022-08-18T01:43:15.247Z,94501.16
2022-08-18T01:44:11.980Z,94589.75
2022-08-18T01:45:10.091Z,94582.25
2022-08-18T01:46:07.375Z,94593.50
2022-08-18T01:47:04.360Z,94562.56
2022-08-18T01:48:01.819Z,94585.59
2022-08-18T01:49:00.706Z,94593.28
2022-08-18T01:49:58.495Z,94535.25
2022-08-18T01:50:56.970Z,94579.78
2022-08-18T01:51:55.610Z,94573.19
2022-08-18T01:52:53.616Z,94583.78
2022-08-18T01:53:50.364Z,94504.34
2022-08-18T01:54:48.721Z,94552.00
2022-08-18T01:55:45.886Z,94579.06
2022-08-18T01:56:43.630Z,94602.97
2022-08-18T01:57:43.050Z,94568.78
2022-08-18T01:58:39.859Z,94572.28
2022-08-18T01:59:36.577Z,94574.38
2022-08-18T02:00:35.358Z,94558.91
2022-08-18T02:01:36.481Z,94553.84
2022-08-18T02:02:33.994Z,94566.06
2022-08-18T02:03:37.872Z,94556.56
2022-08-18T02:04:37.128Z,94586.97
2022-08-18T02:05:39.405Z,94596.69
2022-08-18T02:06:37.410Z,94537.47
2022-08-18T02:07:37.475Z,94584.78
2022-08-18T02:08:34.237Z,94590.16
2022-08-18T02:09:31.150Z,94607.84
2022-08-18T02:10:27.877Z,94577.13
2022-08-18T02:11:24.609Z,94577.38
2022-08-18T02:12:21.344Z,94582.13
2022-08-18T02:13:18.723Z,94461.31
2022-08-18T02:14:15.458Z,94586.75
2022-08-18T02:15:12.847Z,94596.97
2022-08-18T02:16:09.619Z,94592.19
2022-08-18T02:17:11.150Z,94586.13
2022-08-18T02:18:14.724Z,94579.19
2022-08-18T02:19:22.857Z,94564.44
2022-08-18T02:20:20.047Z,94576.13
2022-08-18T02:21:19.874Z,94576.16
2022-08-18T02:22:20.396Z,94562.34
2022-08-18T02:23:17.839Z,94584.88
2022-08-18T02:24:14.556Z,94589.81
2022-08-18T02:25:12.714Z,94579.94
2022-08-18T02:26:12.588Z,94496.94
2022-08-18T02:27:11.312Z,94579.28
2022-08-18T02:28:08.223Z,94580.53
2022-08-18T02:29:05.076Z,94584.06
2022-08-18T02:30:07.103Z,94583.09
2022-08-18T02:31:06.662Z,94509.16
2022-08-18T02:32:04.180Z,94593.28
2022-08-18T02:33:01.824Z,94564.66
2022-08-18T02:33:59.608Z,94565.47
2022-08-18T02:34:56.364Z,94587.22
2022-08-18T02:35:55.879Z,94579.78
2022-08-18T02:36:52.880Z,94580.28
2022-08-18T02:37:49.731Z,94562.34
2022-08-18T02:38:54.659Z,94585.13
2022-08-18T02:39:57.371Z,94588.16
2022-08-18T02:40:56.175Z,94451.97
2022-08-18T02:41:53.518Z,94560.81
2022-08-18T02:42:52.621Z,94542.13
2022-08-18T02:43:49.871Z,94605.03
2022-08-18T02:44:47.135Z,94590.84
2022-08-18T02:45:43.913Z,94583.09
2022-08-18T02:46:40.639Z,94576.75
2022-08-18T02:47:37.436Z,94593.28
2022-08-18T02:48:34.816Z,94582.56
2022-08-18T02:49:31.584Z,94587.19
2022-08-18T02:50:28.330Z,94592.56
2022-08-18T02:51:25.745Z,94590.19
2022-08-18T02:52:23.261Z,94586.97
2022-08-18T02:53:22.811Z,94592.38
2022-08-18T02:54:23.187Z,94540.28
2022-08-18T02:55:20.178Z,94603.34
2022-08-18T02:56:40.099Z,94588.06
2022-08-18T02:57:45.868Z,94599.31
2022-08-18T02:58:42.768Z,94585.50
2022-08-18T02:59:40.884Z,94548.22
2022-08-18T03:00:39.047Z,94575.06
2022-08-18T03:01:39.440Z,94575.78
2022-08-18T03:02:36.381Z,94562.22
2022-08-18T03:03:33.204Z,94590.72
2022-08-18T03:04:31.478Z,94588.88
2022-08-18T03:05:30.359Z,94561.19
2022-08-18T03:06:28.769Z,94587.78
2022-08-18T03:07:25.501Z,94575.09
2022-08-18T03:08:22.239Z,94591.78
2022-08-18T03:09:19.253Z,94497.44
2022-08-18T03:10:32.545Z,94590.31
2022-08-18T03:11:30.756Z,94599.88
2022-08-18T03:12:27.463Z,94592.72
2022-08-18T03:13:24.334Z,94585.50
2022-08-18T03:14:21.299Z,94611.59
2022-08-18T03:15:18.610Z,94545.31
2022-08-18T03:16:17.062Z,94561.56
2022-08-18T03:17:15.030Z,94600.97
2022-08-18T03:18:12.410Z,94605.75
2022-08-18T03:19:09.469Z,94594.63
2022-08-18T03:20:07.218Z,94593.50
2022-08-18T03:21:07.930Z,94577.34
2022-08-18T03:22:27.149Z,94601.81
2022-08-18T03:23:30.109Z,94568.22
2022-08-18T03:24:47.177Z,94604.69
2022-08-18T03:25:49.440Z,94604.03
2022-08-18T03:26:46.222Z,94601.28
2022-08-18T03:27:42.978Z,94604.94
2022-08-18T03:28:44.259Z,94596.91
2022-08-18T03:29:40.980Z,94540.94
2022-08-18T03:30:37.833Z,94607.63
2022-08-18T03:31:36.178Z,94614.84
2022-08-18T03:32:32.902Z,94453.41
2022-08-18T03:33:29.944Z,94612.31
2022-08-18T03:34:26.867Z,94547.19
2022-08-18T03:35:23.584Z,94594.59
2022-08-18T03:36:24.517Z,94606.34
2022-08-18T03:37:21.536Z,94594.59
2022-08-18T03:38:18.386Z,94588.25
2022-08-18T03:39:15.360Z,94598.75
2022-08-18T03:40:12.578Z,94608.06
2022-08-18T03:41:15.574Z,94593.53
2022-08-18T03:42:32.680Z,94592.16
2022-08-18T03:43:51.439Z,94603.88
2022-08-18T03:44:48.130Z,94594.03
2022-08-18T03:45:45.194Z,94573.03
2022-08-18T03:46:44.719Z,94600.16
2022-08-18T03:47:41.501Z,94602.31
2022-08-18T03:48:40.980Z,94495.91
2022-08-18T03:49:38.643Z,94625.69
2022-08-18T03:50:35.411Z,94462.41
2022-08-18T03:51:32.969Z,94601.81
2022-08-18T03:52:29.915Z,94605.63
2022-08-18T03:53:26.698Z,94609.06
2022-08-18T03:54:23.457Z,94612.91
2022-08-18T03:55:20.331Z,94601.97
2022-08-18T03:56:21.339Z,94602.88
2022-08-18T03:57:18.141Z,94598.56
2022-08-18T03:58:15.747Z,94604.91
2022-08-18T03:59:18.108Z,94606.59
2022-08-18T04:00:15.186Z,94610.00
2022-08-18T04:01:15.901Z,94608.41
2022-08-18T04:02:23.757Z,94621.41
2022-08-18T04:03:20.602Z,94600.81
2022-08-18T04:04:21.180Z,94606.69
2022-08-18T04:05:18.167Z,94615.59
2022-08-18T04:06:18.475Z,94605.00
2022-08-18T04:07:27.163Z,94622.66
2022-08-18T04:08:23.874Z,94611.22
2022-08-18T04:09:22.919Z,94622.94
2022-08-18T04:10:19.924Z,94630.41
2022-08-18T04:11:16.830Z,94600.09
2022-08-18T04:12:17.261Z,94625.06
2022-08-18T04:13:14.297Z,94626.66
2022-08-18T04:14:14.004Z,94634.09
2022-08-18T04:15:11.753Z,94630.91
2022-08-18T04:16:09.561Z,94609.06
2022-08-18T04:17:07.211Z,94627.66
2022-08-18T04:18:04.655Z,94636.13
2022-08-18T04:19:04.001Z,94637.44
2022-08-18T04:20:00.742Z,94631.56
2022-08-18T04:21:02.054Z,94601.00
2022-08-18T04:21:58.920Z,94629.66
2022-08-18T04:22:56.013Z,94633.94
2022-08-18T04:23:52.814Z,94642.75
2022-08-18T04:24:50.357Z,94645.16
2022-08-18T04:25:59.161Z,94608.78
2022-08-18T04:26:57.450Z,94604.78
2022-08-18T04:28:00.401Z,94646.47
2022-08-18T04:28:57.268Z,94642.47
2022-08-18T04:29:56.698Z,94560.38
2022-08-18T04:30:54.933Z,94635.28
2022-08-18T04:31:52.063Z,94645.97
2022-08-18T04:32:49.067Z,94616.19
2022-08-18T04:33:45.805Z,94641.00
2022-08-18T04:34:42.622Z,94619.13
2022-08-18T04:35:40.120Z,94647.13
2022-08-18T04:36:37.668Z,94649.81
2022-08-18T04:37:50.352Z,94534.38
2022-08-18T04:38:47.243Z,94644.88
2022-08-18T04:39:45.499Z,94641.78
2022-08-18T04:40:42.638Z,94649.97
2022-08-18T04:41:43.465Z,94552.47
2022-08-18T04:42:43.276Z,94649.75
2022-08-18T04:43:41.457Z,94643.06
2022-08-18T04:44:38.342Z,94653.91
2022-08-18T04:45:35.835Z,94609.88
2022-08-18T04:46:40.072Z,94652.63
2022-08-18T04:47:41.676Z,94608.38
2022-08-18T04:48:41.232Z,94638.28
2022-08-18T04:49:38.862Z,94660.41
2022-08-18T04:50:37.405Z,94645.75
2022-08-18T04:52:34.157Z,94648.47
2022-08-18T04:53:09.588Z,94639.22
2022-08-18T04:54:06.459Z,94657.59
2022-08-18T04:55:04.292Z,94543.66
2022-08-18T04:56:01.078Z,94638.28
2022-08-18T04:56:57.861Z,94584.09
2022-08-18T04:57:54.940Z,94598.25
2022-08-18T04:58:56.144Z,94644.47
2022-08-18T04:59:53.479Z,94658.59
2022-08-18T05:01:01.339Z,94650.13
2022-08-18T05:02:01.575Z,94618.19
2022-08-18T05:02:58.299Z,94596.78
2022-08-18T05:03:57.091Z,94656.22
2022-08-18T05:04:53.869Z,94655.94
2022-08-18T05:05:50.608Z,94625.13
2022-08-18T05:06:47.480Z,94647.25
2022-08-18T05:07:47.428Z,94662.09
2022-08-18T05:08:44.218Z,94656.06
2022-08-18T05:09:42.140Z,94674.25
2022-08-18T05:10:40.418Z,94657.53
2022-08-18T05:11:37.862Z,94657.19
2022-08-18T05:12:35.312Z,94613.13
2022-08-18T05:13:32.215Z,94644.88
2022-08-18T05:14:29.026Z,94658.03
2022-08-18T05:15:26.456Z,94666.00
2022-08-18T05:16:27.411Z,94636.97
2022-08-18T05:17:30.576Z,94652.47
2022-08-18T05:18:27.909Z,94630.50
2022-08-18T05:19:27.151Z,94655.31
2022-08-18T05:20:25.403Z,94622.72
2022-08-18T05:21:24.590Z,94645.25
2022-08-18T05:22:26.281Z,94675.97
2022-08-18T05:23:26.928Z,94679.19
2022-08-18T05:24:26.796Z,94669.03
2022-08-18T05:25:26.270Z,94676.56
2022-08-18T05:26:23.147Z,94575.81
2022-08-18T05:27:21.327Z,94667.38
2022-08-18T05:28:18.244Z,94623.94
2022-08-18T05:29:17.888Z,94582.38
2022-08-18T05:30:16.759Z,94630.44
2022-08-18T05:31:17.669Z,94603.81
2022-08-18T05:32:38.352Z,94653.31
2022-08-18T05:33:31.754Z,94653.44
2022-08-18T05:34:28.547Z,94671.13
2022-08-18T05:35:35.133Z,94673.66
2022-08-18T05:36:43.484Z,94662.50
2022-08-18T05:38:04.247Z,94661.72
2022-08-18T05:39:21.477Z,94613.50
2022-08-18T05:40:24.529Z,94652.41
2022-08-18T05:41:35.051Z,94674.25
2022-08-18T05:42:37.878Z,94657.44
2022-08-18T05:43:36.683Z,94672.00
2022-08-18T05:44:47.106Z,94635.50
2022-08-18T05:45:44.166Z,94673.16
2022-08-18T05:47:06.524Z,94576.63
2022-08-18T05:48:03.608Z,94628.50
2022-08-18T05:49:00.469Z,94663.44
2022-08-18T05:50:08.102Z,94522.91
2022-08-18T05:51:23.477Z,94672.94
2022-08-18T05:52:30.317Z,94593.94
2022-08-18T05:53:49.237Z,94654.84
2022-08-18T05:55:11.301Z,94657.00
2022-08-18T05:56:32.045Z,94665.72
2022-08-18T05:57:38.825Z,94648.28
2022-08-18T05:58:44.131Z,94656.09
2022-08-18T05:59:43.472Z,94655.03
2022-08-18T06:00:48.353Z,94569.22
2022-08-18T06:01:52.629Z,94660.56
2022-08-18T06:03:08.723Z,94673.31
2022-08-18T06:04:19.404Z,94665.44
2022-08-18T06:05:25.674Z,94676.31
2022-08-18T06:06:30.384Z,94675.09
2022-08-18T06:07:42.051Z,94659.03
2022-08-18T06:08:47.023Z,94657.69
2022-08-18T06:09:51.076Z,94661.75
2022-08-18T06:10:49.632Z,94652.00
2022-08-18T06:11:47.277Z,94665.59
2022-08-18T06:12:52.146Z,94669.25
2022-08-18T06:13:49.937Z,94671.59
2022-08-18T06:14:50.110Z,94548.50
2022-08-18T06:15:58.845Z,94660.94
2022-08-18T06:16:58.299Z,94663.84
2022-08-18T06:18:23.073Z,94665.09
2022-08-18T06:19:51.792Z,94667.97
2022-08-18T06:21:00.809Z,94668.16
2022-08-18T06:22:04.514Z,94667.75
2022-08-18T06:23:32.553Z,94673.31
2022-08-18T06:25:03.325Z,94683.38
2022-08-18T06:26:15.097Z,94666.22
2022-08-18T06:27:14.652Z,94672.16
2022-08-18T06:28:17.217Z,94674.09
2022-08-18T06:29:28.959Z,94667.06
2022-08-18T06:30:47.250Z,94673.38
2022-08-18T06:32:11.529Z,94671.22
2022-08-18T06:33:39.449Z,94666.72
2022-08-18T06:34:57.040Z,94674.31
2022-08-18T06:36:02.595Z,94690.28
2022-08-18T06:37:11.342Z,94656.47
2022-08-18T06:38:45.559Z,94677.28
2022-08-18T06:39:49.937Z,94682.59
2022-08-18T06:40:48.639Z,94650.78
2022-08-18T06:41:50.058Z,94649.22
2022-08-18T06:42:48.066Z,94680.78
2022-08-18T06:44:03.224Z,94664.56
2022-08-18T06:45:12.752Z,94667.66
2022-08-18T06:46:19.465Z,94680.53
2022-08-18T06:47:49.448Z,94665.09
2022-08-18T06:49:03.700Z,94660.16
2022-08-18T06:50:28.793Z,94663.88
2022-08-18T06:51:28.336Z,94666.59
2022-08-18T06:52:32.145Z,94668.59
2022-08-18T06:54:03.953Z,94659.13
2022-08-18T06:55:11.497Z,94665.81
2022-08-18T06:56:37.707Z,94578.31
2022-08-18T06:57:52.919Z,94662.06
2022-08-18T06:58:53.389Z,94668.84
2022-08-18T07:00:22.318Z,94640.41
2022-08-18T07:01:19.765Z,94604.94
2022-08-18T07:02:40.694Z,94660.00
2022-08-18T07:03:37.904Z,94665.44
2022-08-18T07:04:44.345Z,94665.59
2022-08-18T07:06:05.427Z,94650.31
2022-08-18T07:07:29.761Z,94651.13
2022-08-18T07:08:43.394Z,94617.84
2022-08-18T07:09:40.343Z,94655.88
2022-08-18T07:10:47.229Z,94657.84
2022-08-18T07:11:58.843Z,94653.41
2022-08-18T07:13:30.141Z,94642.16
2022-08-18T07:14:28.590Z,94649.78
2022-08-18T07:15:25.470Z,94649.16
2022-08-18T07:16:57.092Z,94616.75
2022-08-18T07:17:51.065Z,94649.31
2022-08-18T07:18:47.891Z,94654.38
2022-08-18T07:19:44.710Z,94617.25
2022-08-18T07:20:54.466Z,94627.72
2022-08-18T07:22:13.720Z,94647.88
2022-08-18T07:23:26.561Z,94610.91
2022-08-18T07:24:31.263Z,94644.88
2022-08-18T07:25:50.586Z,94588.34
2022-08-18T07:27:15.441Z,94647.50
2022-08-18T07:28:48.719Z,94613.75
2022-08-18T07:30:06.929Z,94648.13
2022-08-18T07:31:18.347Z,94640.69
2022-08-18T07:32:21.827Z,94593.22
2022-08-18T07:33:25.906Z,94643.69
2022-08-18T07:34:33.398Z,94657.34
2022-08-18T07:35:49.705Z,94644.16
2022-08-18T07:36:55.032Z,94649.81
2022-08-18T07:38:00.582Z,94609.34
2022-08-18T07:39:18.958Z,94579.56
2022-08-18T07:40:38.350Z,94645.06
2022-08-18T07:41:49.128Z,94641.56
2022-08-18T07:43:00.808Z,94639.59
2022-08-18T07:44:40.466Z,94614.81
2022-08-18T07:45:42.739Z,94642.31
2022-08-18T07:46:51.102Z,94598.78
2022-08-18T07:48:21.024Z,94638.53
2022-08-18T07:49:26.392Z,94643.66
2022-08-18T07:50:57.556Z,94638.31
2022-08-18T07:51:53.119Z,94562.44
2022-08-18T07:53:08.890Z,94636.44
2022-08-18T07:54:47.860Z,94634.59
2022-08-18T07:55:48.375Z,94636.47
2022-08-18T07:57:19.208Z,94639.97
2022-08-18T07:58:37.654Z,94647.50
2022-08-18T07:59:39.565Z,94646.53
2022-08-18T08:01:13.442Z,94644.69
2022-08-18T08:02:22.549Z,94638.91
2022-08-18T08:03:28.083Z,94643.56
2022-08-18T08:04:56.876Z,94645.34
2022-08-18T08:06:18.604Z,94651.72
2022-08-18T08:07:25.183Z,94648.22
2022-08-18T08:08:40.450Z,94643.34
2022-08-18T08:10:02.045Z,94643.16
2022-08-18T08:11:14.076Z,94642.34
2022-08-18T08:12:31.128Z,94645.00
2022-08-18T08:14:07.200Z,94642.81
2022-08-18T08:15:13.831Z,94648.69
2022-08-18T08:16:18.736Z,94653.25
2022-08-18T08:17:23.588Z,94639.81
2022-08-18T08:18:23.089Z,94635.00
2022-08-18T08:19:49.406Z,94640.19
2022-08-18T08:20:56.396Z,94636.63
2022-08-18T08:22:08.494Z,94629.75
2022-08-18T08:23:32.063Z,94607.34
2022-08-18T08:24:40.511Z,94644.72
2022-08-18T08:26:14.021Z,94635.59
2022-08-18T08:27:41.707Z,94633.13
2022-08-18T08:28:41.166Z,94639.78
2022-08-18T08:30:02.883Z,94638.44
2022-08-18T08:31:13.487Z,94629.88
2022-08-18T08:32:30.951Z,94611.47
2022-08-18T08:34:22.926Z,94632.81
2022-08-18T08:35:48.965Z,94607.25
2022-08-18T08:36:50.750Z,94640.28
2022-08-18T08:38:36.714Z,94609.44
2022-08-18T08:39:33.720Z,94639.75
2022-08-18T08:40:47.953Z,94628.97
2022-08-18T08:41:52.150Z,94638.13
2022-08-18T08:43:00.758Z,94566.13
2022-08-18T08:44:06.565Z,94632.41
2022-08-18T08:45:21.180Z,94635.69
2022-08-18T08:46:25.491Z,94633.06
2022-08-18T08:47:34.495Z,94618.81
2022-08-18T08:48:36.724Z,94618.16
2022-08-18T08:49:43.772Z,94641.00
2022-08-18T08:51:03.685Z,94642.56
2022-08-18T08:52:07.408Z,94644.38
2022-08-18T08:53:22.439Z,94628.09
2022-08-18T08:54:27.727Z,94618.03
2022-08-18T08:55:35.697Z,94635.31
2022-08-18T08:56:43.100Z,94633.63
2022-08-18T08:57:50.404Z,94640.16
2022-08-18T08:59:00.243Z,94634.44
2022-08-18T09:00:03.179Z,94634.19
2022-08-18T09:01:02.110Z,94613.50
2022-08-18T09:02:47.754Z,94630.81
2022-08-18T09:04:24.690Z,94629.56
2022-08-18T09:05:40.108Z,94648.72
2022-08-18T09:07:09.565Z,94626.47
2022-08-18T09:08:27.592Z,94622.38
2022-08-18T09:09:45.813Z,94616.94
2022-08-18T09:10:51.508Z,94617.44
2022-08-18T09:12:21.293Z,94621.84
2022-08-18T09:13:29.252Z,94622.22
2022-08-18T09:14:44.682Z,94619.94
2022-08-18T09:16:27.759Z,94612.81
2022-08-18T09:17:45.966Z,94615.88
2022-08-18T09:19:13.800Z,94617.56
2022-08-18T09:20:17.338Z,94608.72
2022-08-18T09:21:40.477Z,94605.00
2022-08-18T09:22:53.957Z,94607.66
2022-08-18T09:24:05.271Z,94612.75
2022-08-18T09:25:02.711Z,94531.19
2022-08-18T09:26:22.448Z,94608.06
2022-08-18T09:28:09.463Z,94611.22
2022-08-18T09:29:13.133Z,94623.28
2022-08-18T09:30:38.664Z,94607.13
2022-08-18T09:31:36.628Z,94604.16
2022-08-18T09:32:55.211Z,94603.44
2022-08-18T09:34:12.923Z,94605.31
2022-08-18T09:35:24.858Z,94600.31
2022-08-18T09:36:32.272Z,94594.72
2022-08-18T09:38:29.368Z,94594.44
2022-08-18T09:39:54.834Z,94599.31
2022-08-18T09:41:24.405Z,94583.19
2022-08-18T09:42:56.021Z,94492.50
2022-08-18T09:44:17.950Z,94592.22
2022-08-18T09:45:33.256Z,94582.44
2022-08-18T09:46:43.730Z,94590.72
2022-08-18T09:47:43.301Z,94589.72
2022-08-18T09:48:45.344Z,94595.06
2022-08-18T09:49:47.686Z,94592.50
2022-08-18T09:50:58.844Z,94602.13
2022-08-18T09:51:58.731Z,94575.66
2022-08-18T09:53:37.196Z,94568.56
2022-08-18T09:54:52.788Z,94575.31
2022-08-18T09:56:00.714Z,94568.94
2022-08-18T09:57:19.628Z,94581.19
2022-08-18T09:58:26.402Z,94574.00
2022-08-18T09:59:38.083Z,94576.81
2022-08-18T10:00:35.102Z,94551.78
2022-08-18T10:01:39.844Z,94573.00
2022-08-18T10:02:37.094Z,94575.28
2022-08-18T10:03:33.928Z,94559.50
2022-08-18T10:04:51.586Z,94574.00
2022-08-18T10:07:43.460Z,94571.38
2022-08-18T10:08:50.338Z,94566.59
2022-08-18T10:10:02.289Z,94570.66
2022-08-18T10:11:47.852Z,94542.34
2022-08-18T10:12:58.994Z,94561.19
2022-08-18T10:14:39.627Z,94561.84
2022-08-18T10:16:21.802Z,94560.13
2022-08-18T10:19:33.687Z,94560.16
2022-08-18T10:20:50.633Z,94563.13
2022-08-18T10:21:58.332Z,94562.34
2022-08-18T10:22:57.402Z,94566.09
2022-08-18T10:24:14.563Z,94555.84
2022-08-18T10:25:22.639Z,94565.41
2022-08-18T10:26:31.707Z,94559.13
2022-08-18T10:27:46.691Z,94557.78
2022-08-18T10:30:31.093Z,94555.53
2022-08-18T10:33:18.143Z,94552.81
2022-08-18T10:34:35.324Z,94547.31
2022-08-18T10:35:37.691Z,94539.16
2022-08-18T10:36:47.843Z,94456.88
2022-08-18T10:37:50.754Z,94559.91
2022-08-18T10:38:53.310Z,94542.66
2022-08-18T10:39:55.898Z,94559.03
2022-08-18T10:41:15.486Z,94525.44
2022-08-18T10:42:21.402Z,94549.31
2022-08-18T10:43:55.578Z,94548.88
2022-08-18T10:45:06.044Z,94555.66
2022-08-18T10:46:24.902Z,94476.72
2022-08-18T10:47:33.696Z,94553.25
2022-08-18T10:48:34.471Z,94545.00
2022-08-18T10:49:34.008Z,94542.13
2022-08-18T10:50:43.462Z,94536.50
2022-08-18T10:52:08.974Z,94544.00
2022-08-18T10:53:39.330Z,94516.97
2022-08-18T10:55:22.685Z,94462.94
2022-08-18T10:56:32.933Z,94533.47
2022-08-18T10:58:07.195Z,94540.00
2022-08-18T10:59:29.228Z,94535.44
2022-08-18T11:00:37.517Z,94529.81
2022-08-18T11:01:55.581Z,94531.94
2022-08-18T11:03:51.679Z,94529.03
2022-08-18T11:04:58.879Z,94479.97
2022-08-18T11:06:18.139Z,94348.06
2022-08-18T11:07:25.801Z,94534.47
2022-08-18T11:08:25.549Z,94409.38
2022-08-18T11:09:28.232Z,94523.69
2022-08-18T11:10:57.712Z,94516.97
2022-08-18T11:12:01.414Z,94519.50
2022-08-18T11:13:03.258Z,94522.56
2022-08-18T11:14:40.676Z,94524.22
2022-08-18T11:15:46.300Z,94521.78
2022-08-18T11:17:01.363Z,94522.41
2022-08-18T11:18:30.215Z,94526.03
2022-08-18T11:19:27.759Z,94436.81
2022-08-18T11:20:49.148Z,94462.94
2022-08-18T11:21:52.463Z,94510.56
2022-08-18T11:23:01.947Z,94480.31
2022-08-18T11:24:11.098Z,94518.84
2022-08-18T11:25:22.982Z,94512.94
2022-08-18T11:26:20.152Z,94510.13
2022-08-18T11:27:27.410Z,94521.63
2022-08-18T11:28:30.644Z,94526.13
2022-08-18T11:29:41.423Z,94517.88
2022-08-18T11:30:45.067Z,94344.44
2022-08-18T11:31:43.842Z,94457.47
2022-08-18T11:32:51.994Z,94453.50
2022-08-18T11:33:51.266Z,94393.56
2022-08-18T11:34:53.981Z,94527.13
2022-08-18T11:35:58.107Z,94513.47
2022-08-18T11:37:01.601Z,94528.31
2022-08-18T11:38:04.450Z,94521.22
2022-08-18T11:39:01.692Z,94469.44
2022-08-18T11:40:07.329Z,94429.22
2022-08-18T11:41:19.406Z,94447.94
2022-08-18T11:42:21.880Z,94526.41
2022-08-18T11:44:47.177Z,94398.22
2022-08-18T11:45:44.125Z,94509.06
2022-08-18T11:46:42.978Z,94510.66
2022-08-18T11:48:35.858Z,94513.50
2022-08-18T11:49:54.883Z,94451.47
2022-08-18T11:50:55.275Z,94502.41
2022-08-18T11:52:26.316Z,94506.28
2022-08-18T11:53:32.813Z,94501.03
2022-08-18T11:54:50.649Z,94379.53
2022-08-18T11:57:58.651Z,94467.63
2022-08-18T11:59:09.228Z,94394.81
2022-08-18T12:00:43.624Z,94490.81
2022-08-18T12:01:52.073Z,94489.25
2022-08-18T12:02:49.058Z,94497.88
2022-08-18T12:03:49.490Z,94493.53
2022-08-18T12:04:53.070Z,94472.66
2022-08-18T12:05:56.005Z,94406.25
2022-08-18T12:06:56.183Z,94488.28
2022-08-18T12:07:57.899Z,94489.59
2022-08-18T12:09:04.216Z,94480.81
2022-08-18T12:10:19.991Z,94487.03
2022-08-18T12:11:31.414Z,94464.41
2022-08-18T12:12:32.585Z,94481.53
2022-08-18T12:13:30.281Z,94439.75
2022-08-18T12:15:48.386Z,94300.75
2022-08-18T12:16:46.359Z,94478.97
2022-08-18T12:17:52.148Z,94491.53
2022-08-18T12:18:49.833Z,94447.53
2022-08-18T12:19:51.826Z,94496.53
2022-08-18T12:20:49.529Z,94481.09
2022-08-18T12:22:18.537Z,94475.59
2022-08-18T12:23:15.393Z,94469.41
2022-08-18T12:24:26.262Z,94444.69
2022-08-18T12:25:25.887Z,94449.97
2022-08-18T12:26:38.187Z,94488.78
2022-08-18T12:27:35.692Z,94484.25
2022-08-18T12:28:32.447Z,94393.81
2022-08-18T12:29:36.652Z,94441.47
2022-08-18T12:30:42.273Z,94405.00
2022-08-18T12:31:42.525Z,94482.16
2022-08-18T12:34:02.813Z,94479.69
2022-08-18T12:35:05.335Z,94474.31
2022-08-18T12:36:05.903Z,94479.19
2022-08-18T12:37:10.282Z,94429.78
2022-08-18T12:38:20.588Z,94445.97
2022-08-18T12:39:18.192Z,94471.53
2022-08-18T12:40:17.308Z,94476.03
2022-08-18T12:41:18.620Z,94466.78
2022-08-18T12:42:20.500Z,94421.31
2022-08-18T12:43:17.301Z,94468.69
2022-08-18T12:44:15.155Z,94375.53
2022-08-18T12:45:15.292Z,94486.03
2022-08-18T12:46:12.508Z,94475.13
2022-08-18T12:47:16.528Z,94406.13
2022-08-18T12:48:13.428Z,94434.50
2022-08-18T12:49:23.722Z,94483.56
2022-08-18T12:50:20.596Z,94476.78
2022-08-18T12:51:30.674Z,94479.13
2022-08-18T12:52:27.699Z,94491.09
2022-08-18T12:53:30.088Z,94457.34
2022-08-18T12:54:55.169Z,94395.00
2022-08-18T12:55:52.739Z,94477.69
2022-08-18T12:56:54.297Z,94459.72
2022-08-18T12:57:53.303Z,94365.06
2022-08-18T12:58:51.815Z,94467.09
2022-08-18T12:59:48.644Z,94442.16
2022-08-18T13:00:46.629Z,94464.09
2022-08-18T13:01:43.564Z,94484.25
2022-08-18T13:02:42.191Z,94461.00
2022-08-18T13:03:42.612Z,94391.53
2022-08-18T13:04:39.818Z,94473.38
2022-08-18T13:05:38.071Z,94457.28
2022-08-18T13:06:40.692Z,94476.91
2022-08-18T13:07:37.592Z,94468.72